Strona główna
METAR-TAF:

METAR-TAF

Lotnisko :

Kingston, Ontario, Kanada

Szerokość geograficzna: 44-13N, Długość geograficzna: 076-36W, wysokość: 93 m

Aktualna obserwacja pogody

Raport powstał 5 godziny i 9 minut temu, godzina 04:00 UTC
Wiatr 3 kt od północ
Temperatura -13°C
Wilgotność 92%
Ciśnienie 1030 hPa
Widzialność: 24.1 km
bezchmurnie

METAR: CYGK 080400Z 35003KT 15SM SKC M13/M14 A3043 RMK LAST STFD OBS/NXT 081100Z SLP315

czas: 04:09 (09:09 UTC)

Prognoza

Raport powstał 7 godziny i 31 minut temu, godzina 01:38 UTC
Prognoza ważna od 08 godzina 02 UTC do 08 godzina 04 UTC
Wiatr 7 kt od zachód
Widzialność: 10 km
Mało chmury na wysokości 3000 ft

TAF: CYGK 080138Z 0802/0804 28007KT P6SM FEW030 RMK NXT FCST WILL BE ISSUED AT 081245Z

Obserwacja i prognoza pogody dla ponad 4000 lotnisk (raport METAR i TAF).

Dostępne stacje oznaczono żółtymi i czerwonymi punktami na mapie.

Najedź kursorem aby zobaczyć nazwę stacji.

Kliknij aby zobaczyć obserwacje i prognozy pogody.

Aby zmienić mapę: kliknij na zielony przycisk z czarnym krzyżykiem, aby powiększyć; na zielony przycisk z myślnikiem, aby pomniejszyć; na zielone strzałki, aby przejść do map sąsiednich.


METAR-TAF: